createdAt,value
2018-02-25T00:00:25.982Z,51.82
2018-02-25T00:02:55.112Z,51.69
2018-02-25T00:05:23.448Z,52.09
2018-02-25T00:07:52.027Z,52.32
2018-02-25T00:10:20.493Z,52.18
2018-02-25T00:12:49.572Z,52.24
2018-02-25T00:15:17.912Z,52.10
2018-02-25T00:17:47.052Z,52.11
2018-02-25T00:20:15.371Z,52.86
2018-02-25T00:22:43.767Z,52.88
2018-02-25T00:25:12.114Z,52.80
2018-02-25T00:27:40.454Z,52.93
2018-02-25T00:30:08.771Z,52.92
2018-02-25T00:32:37.389Z,52.82
2018-02-25T00:35:06.458Z,52.95
2018-02-25T00:37:34.792Z,53.36
2018-02-25T00:40:03.275Z,53.43
2018-02-25T00:42:31.594Z,53.50
2018-02-25T00:45:00.757Z,53.47
2018-02-25T00:47:29.134Z,53.81
2018-02-25T00:49:57.467Z,53.93
2018-02-25T00:52:26.536Z,54.26
2018-02-25T00:54:55.156Z,54.71
2018-02-25T00:57:24.555Z,54.93
2018-02-25T00:59:53.653Z,54.79
2018-02-25T01:02:22.782Z,55.15
2018-02-25T01:04:51.106Z,55.14
2018-02-25T01:07:19.463Z,55.24
2018-02-25T01:09:47.808Z,54.96
2018-02-25T01:12:16.156Z,54.95
2018-02-25T01:14:44.510Z,55.25
2018-02-25T01:17:13.463Z,55.67
2018-02-25T01:19:41.776Z,55.81
2018-02-25T01:22:10.123Z,56.00
2018-02-25T01:24:38.515Z,56.32
2018-02-25T01:27:06.838Z,56.68
2018-02-25T01:29:35.908Z,56.50
2018-02-25T01:32:04.241Z,56.66
2018-02-25T01:34:32.571Z,56.82
2018-02-25T01:37:00.897Z,57.30
2018-02-25T01:39:29.589Z,57.34
2018-02-25T01:41:57.904Z,57.83
2018-02-25T01:44:26.247Z,57.44
2018-02-25T01:46:54.589Z,57.42
2018-02-25T01:49:23.716Z,57.04
2018-02-25T01:51:52.090Z,57.81
2018-02-25T01:54:20.441Z,57.28
2018-02-25T01:56:49.550Z,57.66
2018-02-25T01:59:19.050Z,57.20
2018-02-25T02:01:48.359Z,57.14
2018-02-25T02:04:17.464Z,57.80
2018-02-25T02:06:45.790Z,57.34
2018-02-25T02:09:14.115Z,57.43
2018-02-25T02:11:42.472Z,57.50
2018-02-25T02:14:11.566Z,56.85
2018-02-25T02:16:39.916Z,57.21
2018-02-25T02:19:08.264Z,57.23
2018-02-25T02:21:36.572Z,57.64
2018-02-25T02:24:05.341Z,57.86
2018-02-25T02:26:33.671Z,58.12
2018-02-25T02:29:02.029Z,57.96
2018-02-25T02:31:30.391Z,57.75
2018-02-25T02:33:58.694Z,57.90
2018-02-25T02:36:27.005Z,57.87
2018-02-25T02:38:56.169Z,57.83
2018-02-25T02:41:24.533Z,57.45
2018-02-25T02:43:52.864Z,57.77
2018-02-25T02:46:21.681Z,57.11
2018-02-25T02:48:49.980Z,57.23
2018-02-25T02:51:18.329Z,57.27
2018-02-25T02:53:46.736Z,57.52
2018-02-25T02:56:15.044Z,57.18
2018-02-25T02:58:43.360Z,57.54
2018-02-25T03:01:11.944Z,57.67
2018-02-25T03:03:40.259Z,57.44
2018-02-25T03:06:08.629Z,57.46
2018-02-25T03:08:37.472Z,57.28
2018-02-25T03:11:05.808Z,56.94
2018-02-25T03:13:34.133Z,56.78
2018-02-25T03:16:03.247Z,56.86
2018-02-25T03:18:31.560Z,56.92
2018-02-25T03:20:59.879Z,57.03
2018-02-25T03:23:28.972Z,57.05
2018-02-25T03:25:58.056Z,57.08
2018-02-25T03:28:26.422Z,57.49
2018-02-25T03:30:55.017Z,56.86
2018-02-25T03:33:23.330Z,57.07
2018-02-25T03:35:51.680Z,57.44
2018-02-25T03:38:20.864Z,57.08
2018-02-25T03:40:49.182Z,56.91
2018-02-25T03:43:17.498Z,57.26
2018-02-25T03:45:45.831Z,57.23
2018-02-25T03:48:14.937Z,57.19
2018-02-25T03:50:43.261Z,56.86
2018-02-25T03:53:11.970Z,57.61
2018-02-25T03:55:41.198Z,57.69
2018-02-25T03:58:09.553Z,57.58
2018-02-25T04:00:41.804Z,57.81
2018-02-25T04:03:10.131Z,58.11
2018-02-25T04:05:38.462Z,58.05
2018-02-25T04:08:06.818Z,57.30
2018-02-25T04:10:35.137Z,57.25
2018-02-25T04:13:04.258Z,58.21
2018-02-25T04:15:33.040Z,58.38
2018-02-25T04:18:01.392Z,58.10
2018-02-25T04:20:30.480Z,58.48
2018-02-25T04:22:58.854Z,58.53
2018-02-25T04:25:27.208Z,58.27
2018-02-25T04:27:55.546Z,58.48
2018-02-25T04:30:24.688Z,58.94
2018-02-25T04:32:53.053Z,58.73
2018-02-25T04:35:21.358Z,58.59
2018-02-25T04:37:49.728Z,58.68
2018-02-25T04:40:18.049Z,58.32
2018-02-25T04:42:46.432Z,57.96
2018-02-25T04:45:15.559Z,57.78
2018-02-25T04:47:43.868Z,58.03
2018-02-25T04:50:12.178Z,58.58
2018-02-25T04:52:40.533Z,57.43
2018-02-25T04:55:08.834Z,57.62
2018-02-25T04:57:37.942Z,57.02
2018-02-25T05:00:08.326Z,57.48
2018-02-25T05:02:36.669Z,57.93
2018-02-25T05:05:05.048Z,57.97
2018-02-25T05:07:33.406Z,58.00
2018-02-25T05:10:02.486Z,58.03
2018-02-25T05:12:31.592Z,58.24
2018-02-25T05:14:59.961Z,58.86
2018-02-25T05:17:29.086Z,59.22
2018-02-25T05:19:57.430Z,59.58
2018-02-25T05:22:26.329Z,59.83
2018-02-25T05:24:55.433Z,59.44
2018-02-25T05:27:24.533Z,59.50
2018-02-25T05:29:53.808Z,59.56
2018-02-25T05:32:22.131Z,59.09
2018-02-25T05:34:50.504Z,59.97
2018-02-25T05:37:18.842Z,59.94
2018-02-25T05:39:47.222Z,59.63
2018-02-25T05:42:15.554Z,59.66
2018-02-25T05:44:44.322Z,59.58
2018-02-25T05:47:13.453Z,59.41
2018-02-25T05:49:41.796Z,59.51
2018-02-25T05:52:10.925Z,59.14
2018-02-25T05:54:39.261Z,59.24
2018-02-25T05:57:07.584Z,59.72
2018-02-25T05:59:36.518Z,58.75
2018-02-25T06:02:04.796Z,59.58
2018-02-25T06:04:33.893Z,58.94
2018-02-25T06:07:02.625Z,58.51
2018-02-25T06:09:30.961Z,58.47
2018-02-25T06:11:59.344Z,58.20
2018-02-25T06:14:28.477Z,58.76
2018-02-25T06:16:56.821Z,58.44
2018-02-25T06:19:25.901Z,58.29
2018-02-25T06:21:54.256Z,58.61
2018-02-25T06:24:22.629Z,59.24
2018-02-25T06:26:50.995Z,59.29
2018-02-25T06:29:20.037Z,58.98
2018-02-25T06:31:48.377Z,59.30
2018-02-25T06:34:16.755Z,59.37
2018-02-25T06:36:45.113Z,59.14
2018-02-25T06:39:13.433Z,58.77
2018-02-25T06:41:41.762Z,58.77
2018-02-25T06:44:10.889Z,58.63
2018-02-25T06:46:39.262Z,58.81
2018-02-25T06:49:07.612Z,58.88
2018-02-25T06:51:37.223Z,58.76
2018-02-25T06:54:06.313Z,58.55
2018-02-25T06:56:34.629Z,58.15
2018-02-25T06:59:02.956Z,57.44
2018-02-25T07:01:32.043Z,56.55
2018-02-25T07:04:00.377Z,55.33
2018-02-25T07:06:28.721Z,53.54
2018-02-25T07:08:57.884Z,51.75
2018-02-25T07:11:26.237Z,51.50
2018-02-25T07:13:54.980Z,50.97
2018-02-25T07:16:23.300Z,52.29
2018-02-25T07:18:51.645Z,52.38
2018-02-25T07:21:20.795Z,51.99
2018-02-25T07:23:49.143Z,50.90
2018-02-25T07:26:17.467Z,50.13
2018-02-25T07:28:45.841Z,49.70
2018-02-25T07:31:14.151Z,48.68
2018-02-25T07:33:43.271Z,48.52
2018-02-25T07:36:11.814Z,48.85
2018-02-25T07:38:40.946Z,48.07
2018-02-25T07:41:09.272Z,46.08
2018-02-25T07:43:37.674Z,46.00
2018-02-25T07:46:06.044Z,46.80
2018-02-25T07:48:34.389Z,48.06
2018-02-25T07:51:03.516Z,48.98
2018-02-25T07:53:31.842Z,49.45
2018-02-25T07:56:00.186Z,50.01
2018-02-25T07:58:29.549Z,50.09
2018-02-25T08:00:57.896Z,49.20
2018-02-25T08:03:26.335Z,48.49
2018-02-25T08:05:54.659Z,47.61
2018-02-25T08:08:23.012Z,47.33
2018-02-25T08:10:51.304Z,48.54
2018-02-25T08:13:19.661Z,47.95
2018-02-25T08:15:47.973Z,47.76
2018-02-25T08:18:16.332Z,48.01
2018-02-25T08:20:45.024Z,47.86
2018-02-25T08:23:13.360Z,45.93
2018-02-25T08:25:41.681Z,44.79
2018-02-25T08:28:10.819Z,42.92
2018-02-25T08:30:39.150Z,40.44
2018-02-25T08:33:07.538Z,39.31
2018-02-25T08:35:35.901Z,39.01
2018-02-25T08:38:04.214Z,37.95
2018-02-25T08:40:32.524Z,36.97
2018-02-25T08:43:00.966Z,36.39
2018-02-25T08:45:29.278Z,36.60
2018-02-25T08:47:57.587Z,36.57
2018-02-25T08:50:25.933Z,36.41
2018-02-25T08:52:54.255Z,37.73
2018-02-25T08:55:23.349Z,38.52
2018-02-25T08:57:52.499Z,40.00
2018-02-25T09:00:20.820Z,40.40
2018-02-25T09:02:50.012Z,41.90
2018-02-25T09:05:18.898Z,41.67
2018-02-25T09:07:47.289Z,40.56
2018-02-25T09:10:15.640Z,39.62
2018-02-25T09:12:43.967Z,39.52
2018-02-25T09:15:12.297Z,40.10
2018-02-25T09:17:40.623Z,42.09
2018-02-25T09:20:09.747Z,42.72
2018-02-25T09:22:38.084Z,43.51
2018-02-25T09:25:06.404Z,44.12
2018-02-25T09:27:35.095Z,45.47
2018-02-25T09:30:03.402Z,45.67
2018-02-25T09:32:31.744Z,47.57
2018-02-25T09:35:00.086Z,47.19
2018-02-25T09:37:28.444Z,47.03
2018-02-25T09:39:56.762Z,47.65
2018-02-25T09:42:25.259Z,47.82
2018-02-25T09:44:53.583Z,47.60
2018-02-25T09:47:21.921Z,48.60
2018-02-25T09:49:51.352Z,49.12
2018-02-25T09:52:19.644Z,49.67
2018-02-25T09:54:47.965Z,49.31
2018-02-25T09:57:16.279Z,49.38
2018-02-25T09:59:44.582Z,49.53
2018-02-25T10:02:12.948Z,49.71
2018-02-25T10:04:41.406Z,48.53
2018-02-25T10:07:09.717Z,48.42
2018-02-25T10:09:38.009Z,48.13
2018-02-25T10:12:07.358Z,49.58
2018-02-25T10:14:35.685Z,50.32
2018-02-25T10:17:04.758Z,51.53
2018-02-25T10:19:33.128Z,49.90
2018-02-25T10:22:01.531Z,48.30
2018-02-25T10:24:29.870Z,49.39
2018-02-25T10:26:58.190Z,49.53
2018-02-25T10:29:26.542Z,51.30
2018-02-25T10:31:54.841Z,53.67
2018-02-25T10:34:23.849Z,52.72
2018-02-25T10:36:52.921Z,53.40
2018-02-25T10:39:21.337Z,52.99
2018-02-25T10:41:50.467Z,52.03
2018-02-25T10:44:18.765Z,52.43
2018-02-25T10:46:47.065Z,52.84
2018-02-25T10:49:15.475Z,52.68
2018-02-25T10:51:43.806Z,53.18
2018-02-25T10:54:12.184Z,52.93
2018-02-25T10:56:40.660Z,54.54
2018-02-25T10:59:08.996Z,53.34
2018-02-25T11:01:37.340Z,53.95
2018-02-25T11:04:05.764Z,53.18
2018-02-25T11:06:34.071Z,52.60
2018-02-25T11:09:02.427Z,53.79
2018-02-25T11:11:30.780Z,53.31
2018-02-25T11:13:59.874Z,52.85
2018-02-25T11:16:28.199Z,52.50
2018-02-25T11:18:56.785Z,52.16
2018-02-25T11:21:25.123Z,52.17
2018-02-25T11:23:54.209Z,51.91
2018-02-25T11:26:23.300Z,49.85
2018-02-25T11:28:52.358Z,51.02
2018-02-25T11:31:20.742Z,50.27
2018-02-25T11:33:49.091Z,50.90
2018-02-25T11:36:18.296Z,51.94
2018-02-25T11:38:46.616Z,52.42
2018-02-25T11:41:15.130Z,51.68
2018-02-25T11:43:43.459Z,51.95
2018-02-25T11:46:11.834Z,51.43
2018-02-25T11:48:40.195Z,52.92
2018-02-25T11:51:08.596Z,54.73
2018-02-25T11:53:36.890Z,53.70
2018-02-25T11:56:05.271Z,54.54
2018-02-25T11:58:33.593Z,55.11
2018-02-25T12:01:01.917Z,55.78
2018-02-25T12:03:30.720Z,55.29
2018-02-25T12:05:59.856Z,54.68
2018-02-25T12:08:28.222Z,55.02
2018-02-25T12:10:56.591Z,54.89
2018-02-25T12:13:25.712Z,52.59
2018-02-25T12:15:54.059Z,53.46
2018-02-25T12:18:23.218Z,53.46
2018-02-25T12:20:51.539Z,53.49
2018-02-25T12:23:20.677Z,52.26
2018-02-25T12:25:49.440Z,52.78
2018-02-25T12:28:17.762Z,53.26
2018-02-25T12:30:46.122Z,53.62
2018-02-25T12:33:14.459Z,54.24
2018-02-25T12:35:43.603Z,53.67
2018-02-25T12:38:11.969Z,53.07
2018-02-25T12:40:40.303Z,53.16
2018-02-25T12:43:08.614Z,53.05
2018-02-25T12:45:36.922Z,54.88
2018-02-25T12:48:05.750Z,55.01
2018-02-25T12:50:34.062Z,53.50
2018-02-25T12:53:02.376Z,53.09
2018-02-25T12:55:30.748Z,51.13
2018-02-25T12:57:59.075Z,48.34
2018-02-25T13:00:28.160Z,47.16
2018-02-25T13:02:56.513Z,46.69
2018-02-25T13:05:24.845Z,48.20
2018-02-25T13:07:53.164Z,46.18
2018-02-25T13:10:21.810Z,47.74
2018-02-25T13:12:50.159Z,46.99
2018-02-25T13:15:18.496Z,48.28
2018-02-25T13:17:46.874Z,49.31
2018-02-25T13:20:15.251Z,51.34
2018-02-25T13:22:43.555Z,51.75
2018-02-25T13:25:11.915Z,52.07
2018-02-25T13:27:40.255Z,52.99
2018-02-25T13:30:08.589Z,53.64
2018-02-25T13:32:37.432Z,52.10
2018-02-25T13:35:05.833Z,53.56
2018-02-25T13:37:34.162Z,53.79
2018-02-25T13:40:02.514Z,52.83
2018-02-25T13:42:30.872Z,55.20
2018-02-25T13:44:59.262Z,56.78
2018-02-25T13:47:27.612Z,58.05
2018-02-25T13:49:55.954Z,58.80
2018-02-25T13:52:24.299Z,58.53
2018-02-25T13:54:52.952Z,59.31
2018-02-25T13:57:21.265Z,58.76
2018-02-25T13:59:49.609Z,58.01
2018-02-25T14:02:17.984Z,58.74
2018-02-25T14:04:46.297Z,59.54
2018-02-25T14:07:14.589Z,59.11
2018-02-25T14:09:42.921Z,60.30
2018-02-25T14:12:11.243Z,60.71
2018-02-25T14:14:39.538Z,60.74
2018-02-25T14:17:08.128Z,61.05
2018-02-25T14:19:36.503Z,60.11
2018-02-25T14:22:04.844Z,60.76
2018-02-25T14:24:33.190Z,61.00
2018-02-25T14:27:01.504Z,62.48
2018-02-25T14:29:29.841Z,61.05
2018-02-25T14:31:58.979Z,59.74
2018-02-25T14:34:27.313Z,59.56
2018-02-25T14:36:55.658Z,60.17
2018-02-25T14:39:24.863Z,58.94
2018-02-25T14:41:54.022Z,59.15
2018-02-25T14:44:22.354Z,59.03
2018-02-25T14:46:50.716Z,60.87
2018-02-25T14:49:19.047Z,62.23
2018-02-25T14:51:47.417Z,61.53
2018-02-25T14:54:15.747Z,60.17
2018-02-25T14:56:44.118Z,60.85
2018-02-25T14:59:12.429Z,61.80
2018-02-25T15:01:41.108Z,60.43
2018-02-25T15:04:09.461Z,60.50
2018-02-25T15:06:37.772Z,60.00
2018-02-25T15:09:06.857Z,61.05
2018-02-25T15:11:35.276Z,60.69
2018-02-25T15:14:03.606Z,59.65
2018-02-25T15:16:32.833Z,60.46
2018-02-25T15:19:01.400Z,59.69
2018-02-25T15:21:30.489Z,59.63
2018-02-25T15:24:00.112Z,58.83
2018-02-25T15:26:29.236Z,59.24
2018-02-25T15:28:57.648Z,58.99
2018-02-25T15:31:26.045Z,58.68
2018-02-25T15:33:54.379Z,58.72
2018-02-25T15:36:22.680Z,59.26
2018-02-25T15:38:51.055Z,59.75
2018-02-25T15:41:19.400Z,59.80
2018-02-25T15:43:48.506Z,60.44
2018-02-25T15:46:17.200Z,60.73
2018-02-25T15:48:45.618Z,60.32
2018-02-25T15:51:13.990Z,60.15
2018-02-25T15:53:42.351Z,61.20
2018-02-25T15:56:10.674Z,60.76
2018-02-25T15:58:39.832Z,60.52
2018-02-25T16:01:08.204Z,60.56
2018-02-25T16:03:37.527Z,60.29
2018-02-25T16:06:05.867Z,59.76
2018-02-25T16:08:34.541Z,60.58
2018-02-25T16:11:03.663Z,61.74
2018-02-25T16:13:32.058Z,61.95
2018-02-25T16:16:00.498Z,62.80
2018-02-25T16:18:28.873Z,61.76
2018-02-25T16:20:57.969Z,62.13
2018-02-25T16:23:27.064Z,62.12
2018-02-25T16:25:56.162Z,62.80
2018-02-25T16:28:25.250Z,63.25
2018-02-25T16:30:53.860Z,63.07
2018-02-25T16:33:22.244Z,63.88
2018-02-25T16:35:50.547Z,64.02
2018-02-25T16:38:18.888Z,64.14
2018-02-25T16:40:47.970Z,64.15
2018-02-25T16:43:16.336Z,64.12
2018-02-25T16:45:45.505Z,63.67
2018-02-25T16:48:13.910Z,64.06
2018-02-25T16:50:42.263Z,63.56
2018-02-25T16:53:11.840Z,63.71
2018-02-25T16:55:40.176Z,64.27
2018-02-25T16:58:08.500Z,64.29
2018-02-25T17:00:36.898Z,65.00
2018-02-25T17:03:05.274Z,64.52
2018-02-25T17:05:33.688Z,64.34
2018-02-25T17:08:02.032Z,63.56
2018-02-25T17:10:30.369Z,64.91
2018-02-25T17:12:58.776Z,64.33
2018-02-25T17:15:27.487Z,64.41
2018-02-25T17:17:55.839Z,63.98
2018-02-25T17:20:24.179Z,64.34
2018-02-25T17:22:52.546Z,64.76
2018-02-25T17:25:20.929Z,64.58
2018-02-25T17:27:49.276Z,64.73
2018-02-25T17:30:17.755Z,65.05
2018-02-25T17:32:46.095Z,65.63
2018-02-25T17:35:14.429Z,66.05
2018-02-25T17:37:43.056Z,66.34
2018-02-25T17:40:11.437Z,66.66
2018-02-25T17:42:40.582Z,66.83
2018-02-25T17:45:08.999Z,66.23
2018-02-25T17:47:37.416Z,66.29
2018-02-25T17:50:05.780Z,66.43
2018-02-25T17:52:34.936Z,66.54
2018-02-25T17:55:03.274Z,66.58
2018-02-25T17:57:31.702Z,66.83
2018-02-25T18:00:00.439Z,66.78
2018-02-25T18:02:28.778Z,67.11
2018-02-25T18:04:57.116Z,67.58
2018-02-25T18:07:25.471Z,67.23
2018-02-25T18:09:54.559Z,66.61
2018-02-25T18:12:22.880Z,66.88
2018-02-25T18:14:52.111Z,67.76
2018-02-25T18:17:20.558Z,67.61
2018-02-25T18:19:48.902Z,67.00
2018-02-25T18:22:17.414Z,67.54
2018-02-25T18:24:45.742Z,68.02
2018-02-25T18:27:14.857Z,68.40
2018-02-25T18:29:43.200Z,67.84
2018-02-25T18:32:11.531Z,68.49
2018-02-25T18:34:39.881Z,68.86
2018-02-25T18:37:09.785Z,68.20
2018-02-25T18:39:38.874Z,68.05
2018-02-25T18:42:07.977Z,68.49
2018-02-25T18:44:37.580Z,68.93
2018-02-25T18:47:06.320Z,69.07
2018-02-25T18:49:34.686Z,68.47
2018-02-25T18:52:03.079Z,68.94
2018-02-25T18:54:31.469Z,69.07
2018-02-25T18:56:59.843Z,69.23
2018-02-25T18:59:28.221Z,68.12
2018-02-25T19:01:56.577Z,68.14
2018-02-25T19:04:25.126Z,68.19
2018-02-25T19:06:53.810Z,68.37
2018-02-25T19:09:22.152Z,68.65
2018-02-25T19:11:50.583Z,68.54
2018-02-25T19:14:19.737Z,68.32
2018-02-25T19:16:48.123Z,68.02
2018-02-25T19:19:16.477Z,67.77
2018-02-25T19:21:44.944Z,68.09
2018-02-25T19:24:13.278Z,68.23
2018-02-25T19:26:42.637Z,68.23
2018-02-25T19:29:11.512Z,68.43
2018-02-25T19:31:40.634Z,68.80
2018-02-25T19:34:09.008Z,69.31
2018-02-25T19:36:42.936Z,69.25
2018-02-25T19:42:23.092Z,69.01
2018-02-25T19:44:51.419Z,68.38
2018-02-25T19:47:19.759Z,67.35
2018-02-25T19:49:48.714Z,67.87
2018-02-25T19:52:17.068Z,68.05
2018-02-25T19:54:45.409Z,68.20
2018-02-25T19:57:13.790Z,67.74
2018-02-25T19:59:42.133Z,67.66
2018-02-25T20:02:10.498Z,67.36
2018-02-25T20:04:38.893Z,67.70
2018-02-25T20:07:08.400Z,67.75
2018-02-25T20:09:37.536Z,67.90
2018-02-25T20:12:06.271Z,68.09
2018-02-25T20:14:34.634Z,67.91
2018-02-25T20:17:02.955Z,68.10
2018-02-25T20:19:31.349Z,67.89
2018-02-25T20:21:59.675Z,67.82
2018-02-25T20:24:28.034Z,67.67
2018-02-25T20:26:56.449Z,67.36
2018-02-25T20:29:25.641Z,67.10
2018-02-25T20:31:54.014Z,67.03
2018-02-25T20:34:23.005Z,67.67
2018-02-25T20:36:51.353Z,67.46
2018-02-25T20:39:19.708Z,68.07
2018-02-25T20:41:48.126Z,67.67
2018-02-25T20:44:17.227Z,67.68
2018-02-25T20:46:45.577Z,67.68
2018-02-25T20:49:14.183Z,67.29
2018-02-25T20:51:43.358Z,67.80
2018-02-25T20:54:11.668Z,67.12
2018-02-25T20:56:40.251Z,67.05
2018-02-25T20:59:08.609Z,67.27
2018-02-25T21:01:36.981Z,67.45
2018-02-25T21:04:05.342Z,67.84
2018-02-25T21:06:33.674Z,67.35
2018-02-25T21:09:02.034Z,66.79
2018-02-25T21:11:30.423Z,66.96
2018-02-25T21:13:58.763Z,66.97
2018-02-25T21:16:27.112Z,66.36
2018-02-25T21:18:56.715Z,67.43
2018-02-25T21:21:25.792Z,67.48
2018-02-25T21:23:54.139Z,67.05
2018-02-25T21:26:22.527Z,66.97
2018-02-25T21:28:50.896Z,66.19
2018-02-25T21:31:19.251Z,65.95
2018-02-25T21:33:47.632Z,65.80
2018-02-25T21:36:16.051Z,65.58
2018-02-25T21:38:44.451Z,65.75
2018-02-25T21:41:13.168Z,65.58
2018-02-25T21:43:42.259Z,65.80
2018-02-25T21:46:11.396Z,65.58
2018-02-25T21:48:39.790Z,65.94
2018-02-25T21:51:08.918Z,65.97
2018-02-25T21:53:42.031Z,65.69
2018-02-25T21:56:16.030Z,65.92
2018-02-25T21:58:50.197Z,66.29
2018-02-25T22:01:23.820Z,66.06
2018-02-25T22:03:57.661Z,66.36
2018-02-25T22:06:26.027Z,67.15
2018-02-25T22:08:55.140Z,67.02
2018-02-25T22:11:24.288Z,67.06
2018-02-25T22:13:52.612Z,67.25
2018-02-25T22:16:20.951Z,67.51
2018-02-25T22:18:49.983Z,67.99
2018-02-25T22:21:18.376Z,67.41
2018-02-25T22:23:47.518Z,67.75
2018-02-25T22:26:15.873Z,68.36
2018-02-25T22:28:44.216Z,68.18
2018-02-25T22:31:13.318Z,68.66
2018-02-25T22:33:42.437Z,68.55
2018-02-25T22:36:10.774Z,69.18
2018-02-25T22:38:39.121Z,68.78
2018-02-25T22:41:08.572Z,68.88
2018-02-25T22:43:37.683Z,68.65
2018-02-25T22:46:06.056Z,69.32
2018-02-25T22:48:35.217Z,69.12
2018-02-25T22:51:03.569Z,69.37
2018-02-25T22:53:31.887Z,69.90
2018-02-25T22:56:00.289Z,70.17
2018-02-25T22:58:28.651Z,69.50
2018-02-25T23:00:56.966Z,69.84
2018-02-25T23:03:25.706Z,69.96
2018-02-25T23:05:54.086Z,69.82
2018-02-25T23:08:22.467Z,69.54
2018-02-25T23:10:50.818Z,69.61
2018-02-25T23:13:19.129Z,69.63
2018-02-25T23:15:47.509Z,70.05
2018-02-25T23:18:17.364Z,69.52
2018-02-25T23:20:45.732Z,70.28
2018-02-25T23:23:14.072Z,70.58
2018-02-25T23:25:43.720Z,70.77
2018-02-25T23:28:12.047Z,70.75
2018-02-25T23:30:40.406Z,70.50
2018-02-25T23:33:08.773Z,70.35
2018-02-25T23:35:37.102Z,70.37
2018-02-25T23:38:06.260Z,70.39
2018-02-25T23:43:09.078Z,71.16
2018-02-25T23:45:37.922Z,71.04
2018-02-25T23:48:06.253Z,71.04
2018-02-25T23:50:34.618Z,70.50
2018-02-25T23:53:03.028Z,70.15
2018-02-25T23:55:32.184Z,70.95
2018-02-25T23:58:00.560Z,70.72
